createdAt,value
2023-05-22T00:00:20.656Z,9.20
2023-05-22T00:02:48.659Z,10.60
2023-05-22T00:05:15.730Z,9.60
2023-05-22T00:07:43.655Z,11.93
2023-05-22T00:10:11.091Z,12.00
2023-05-22T00:12:38.293Z,12.90
2023-05-22T00:15:06.272Z,13.23
2023-05-22T00:17:34.506Z,13.27
2023-05-22T00:20:08.335Z,12.00
2023-05-22T00:22:35.734Z,12.13
2023-05-22T00:25:07.090Z,13.60
2023-05-22T00:27:34.479Z,14.67
2023-05-22T00:30:01.730Z,14.60
2023-05-22T00:32:29.261Z,13.67
2023-05-22T00:34:56.182Z,13.50
2023-05-22T00:37:23.344Z,15.07
2023-05-22T00:39:50.306Z,14.57
2023-05-22T00:42:18.362Z,14.10
2023-05-22T00:44:45.281Z,14.57
2023-05-22T00:47:12.171Z,14.67
2023-05-22T00:49:39.051Z,15.50
2023-05-22T00:52:06.178Z,15.27
2023-05-22T00:54:33.577Z,16.03
2023-05-22T00:57:01.694Z,14.80
2023-05-22T00:59:29.569Z,16.40
2023-05-22T01:01:57.450Z,16.10
2023-05-22T01:04:25.972Z,16.97
2023-05-22T01:06:53.900Z,17.13
2023-05-22T01:09:20.970Z,17.30
2023-05-22T01:12:01.606Z,16.13
2023-05-22T01:14:47.329Z,17.73
2023-05-22T01:17:14.164Z,18.03
2023-05-22T01:19:54.204Z,16.83
2023-05-22T01:22:41.022Z,19.43
2023-05-22T01:25:12.233Z,17.20
2023-05-22T01:27:53.968Z,18.30
2023-05-22T01:30:35.377Z,17.97
2023-05-22T01:33:04.543Z,16.70
2023-05-22T01:35:33.714Z,17.40
2023-05-22T01:38:02.545Z,16.77
2023-05-22T01:40:29.904Z,20.73
2023-05-22T01:42:56.890Z,21.47
2023-05-22T01:45:24.302Z,20.27
2023-05-22T01:47:51.374Z,21.77
2023-05-22T01:50:19.190Z,20.73
2023-05-22T01:53:13.857Z,24.07
2023-05-22T01:55:50.903Z,23.83
2023-05-22T01:58:39.165Z,26.50
2023-05-22T02:01:09.212Z,26.13
2023-05-22T02:03:38.937Z,25.53
2023-05-22T02:06:08.991Z,30.27
2023-05-22T02:08:41.299Z,30.67
2023-05-22T02:11:10.245Z,32.90
2023-05-22T02:13:37.903Z,32.13
2023-05-22T02:16:05.699Z,34.67
2023-05-22T02:18:32.617Z,35.20
2023-05-22T02:21:00.220Z,35.73
2023-05-22T02:23:29.904Z,35.33
2023-05-22T02:25:57.313Z,36.07
2023-05-22T02:28:24.467Z,36.13
2023-05-22T02:30:51.596Z,35.73
2023-05-22T02:33:18.902Z,37.10
2023-05-22T02:35:46.332Z,38.00
2023-05-22T02:38:13.267Z,37.23
2023-05-22T02:40:40.596Z,38.17
2023-05-22T02:43:07.818Z,37.97
2023-05-22T02:45:34.737Z,39.63
2023-05-22T02:48:03.897Z,39.40
2023-05-22T02:50:30.907Z,39.70
2023-05-22T02:52:57.789Z,39.63
2023-05-22T02:55:24.668Z,41.00
2023-05-22T02:57:51.549Z,41.23
2023-05-22T03:00:19.068Z,39.93
2023-05-22T03:02:46.040Z,44.17
2023-05-22T03:05:18.214Z,40.47
2023-05-22T03:07:48.318Z,44.30
2023-05-22T03:10:15.769Z,42.77
2023-05-22T03:12:42.612Z,42.70
2023-05-22T03:15:10.181Z,41.67
2023-05-22T03:17:37.149Z,42.60
2023-05-22T03:20:05.508Z,45.77
2023-05-22T03:22:32.631Z,45.27
2023-05-22T03:24:59.588Z,45.00
2023-05-22T03:27:26.462Z,43.97
2023-05-22T03:29:53.487Z,45.70
2023-05-22T03:32:20.373Z,46.13
2023-05-22T03:34:47.238Z,45.50
2023-05-22T03:37:14.141Z,44.97
2023-05-22T03:39:41.072Z,46.50
2023-05-22T03:42:08.005Z,45.47
2023-05-22T03:44:34.896Z,45.90
2023-05-22T03:47:01.922Z,46.33
2023-05-22T03:49:28.778Z,44.97
2023-05-22T03:51:55.713Z,48.27
2023-05-22T03:54:22.605Z,47.43
2023-05-22T03:56:50.786Z,49.27
2023-05-22T03:59:17.795Z,48.53
2023-05-22T04:01:46.730Z,50.90
2023-05-22T04:04:13.656Z,48.83
2023-05-22T04:06:43.642Z,51.00
2023-05-22T04:09:14.384Z,48.50
2023-05-22T04:11:42.437Z,49.33
2023-05-22T04:14:09.767Z,50.30
2023-05-22T04:16:36.778Z,49.90
2023-05-22T04:19:04.136Z,49.70
2023-05-22T04:21:34.451Z,49.90
2023-05-22T04:24:02.344Z,49.57
2023-05-22T04:26:32.202Z,48.43
2023-05-22T04:28:59.271Z,48.60
2023-05-22T04:31:26.268Z,45.20
2023-05-22T04:33:54.800Z,46.90
2023-05-22T04:36:22.584Z,45.80
2023-05-22T04:38:50.404Z,45.17
2023-05-22T04:41:22.667Z,44.77
2023-05-22T04:43:49.968Z,42.13
2023-05-22T04:46:16.908Z,41.93
2023-05-22T04:48:43.804Z,41.70
2023-05-22T04:51:10.758Z,43.60
2023-05-22T04:53:38.856Z,42.03
2023-05-22T04:56:06.851Z,42.47
2023-05-22T04:58:33.922Z,44.20
2023-05-22T05:01:00.868Z,45.60
2023-05-22T05:03:28.674Z,42.33
2023-05-22T05:05:56.874Z,40.10
2023-05-22T05:08:23.759Z,41.83
2023-05-22T05:10:50.728Z,39.60
2023-05-22T05:13:17.655Z,40.70
2023-05-22T05:15:44.592Z,38.53
2023-05-22T05:18:12.414Z,37.00
2023-05-22T05:20:39.543Z,37.57
2023-05-22T05:23:06.676Z,36.60
2023-05-22T05:25:33.585Z,35.30
2023-05-22T05:28:00.518Z,36.53
2023-05-22T05:30:30.149Z,36.50
2023-05-22T05:32:57.133Z,33.43
2023-05-22T05:35:24.044Z,33.40
2023-05-22T05:37:51.881Z,31.87
2023-05-22T05:40:18.823Z,32.83
2023-05-22T05:42:45.792Z,31.70
2023-05-22T05:45:13.502Z,31.37
2023-05-22T05:47:40.945Z,31.47
2023-05-22T05:50:08.132Z,31.73
2023-05-22T05:52:35.124Z,34.13
2023-05-22T05:55:02.069Z,31.13
2023-05-22T05:57:31.181Z,33.97
2023-05-22T05:59:58.037Z,33.27
2023-05-22T06:02:25.065Z,30.67
2023-05-22T06:04:53.943Z,30.40
2023-05-22T06:07:21.117Z,29.00
2023-05-22T06:09:48.088Z,31.10
2023-05-22T06:12:14.962Z,31.13
2023-05-22T06:14:41.930Z,31.20
2023-05-22T06:17:09.484Z,30.97
2023-05-22T06:19:36.785Z,30.60
2023-05-22T06:22:03.951Z,32.87
2023-05-22T06:24:32.697Z,31.60
2023-05-22T06:26:59.981Z,32.93
2023-05-22T06:29:26.975Z,32.40
2023-05-22T06:31:53.953Z,31.53
2023-05-22T06:34:22.593Z,33.23
2023-05-22T06:36:52.762Z,34.13
2023-05-22T06:39:19.692Z,35.87
2023-05-22T06:41:46.549Z,34.97
2023-05-22T06:44:13.600Z,36.07
2023-05-22T06:46:40.499Z,33.00
2023-05-22T06:49:07.718Z,33.67
2023-05-22T06:51:34.585Z,31.30
2023-05-22T06:54:01.545Z,33.57
2023-05-22T06:56:28.394Z,34.07
2023-05-22T06:58:55.436Z,32.23
2023-05-22T07:01:23.465Z,33.60
2023-05-22T07:03:50.410Z,31.60
2023-05-22T07:06:18.512Z,32.17
2023-05-22T07:08:45.408Z,32.57
2023-05-22T07:11:12.393Z,32.87
2023-05-22T07:13:39.275Z,33.87
2023-05-22T07:16:06.695Z,33.60
2023-05-22T07:18:33.745Z,33.07
2023-05-22T07:21:00.918Z,34.13
2023-05-22T07:23:27.782Z,33.03
2023-05-22T07:25:54.833Z,36.37
2023-05-22T07:28:21.778Z,33.87
2023-05-22T07:30:48.676Z,32.97
2023-05-22T07:33:16.260Z,34.20
2023-05-22T07:35:43.903Z,32.97
2023-05-22T07:38:10.808Z,33.43
2023-05-22T07:40:38.097Z,34.00
2023-05-22T07:43:05.314Z,30.37
2023-05-22T07:45:32.215Z,31.63
2023-05-22T07:47:59.288Z,31.80
2023-05-22T07:50:27.131Z,32.10
2023-05-22T07:52:54.046Z,32.07
2023-05-22T07:55:20.966Z,32.87
2023-05-22T07:57:47.951Z,32.57
2023-05-22T08:00:17.252Z,32.60
2023-05-22T08:02:44.164Z,33.27
2023-05-22T08:05:12.342Z,32.17
2023-05-22T08:07:39.532Z,33.30
2023-05-22T08:10:15.262Z,38.57
2023-05-22T08:12:42.284Z,34.63
2023-05-22T08:15:09.722Z,32.37
2023-05-22T08:17:37.340Z,34.90
2023-05-22T08:20:05.741Z,35.93
2023-05-22T08:22:34.368Z,38.00
2023-05-22T08:25:01.372Z,37.13
2023-05-22T08:27:28.294Z,37.10
2023-05-22T08:29:55.225Z,35.90
2023-05-22T08:32:22.212Z,33.33
2023-05-22T08:34:49.447Z,34.40
2023-05-22T08:37:16.367Z,33.40
2023-05-22T08:39:43.393Z,32.00
2023-05-22T08:42:10.258Z,34.67
2023-05-22T08:44:37.269Z,34.20
2023-05-22T08:47:10.051Z,36.47
2023-05-22T08:49:40.192Z,35.40
2023-05-22T08:52:34.886Z,36.67
2023-05-22T08:55:05.265Z,37.40
2023-05-22T08:57:34.100Z,37.30
2023-05-22T09:00:01.156Z,35.80
2023-05-22T09:02:28.701Z,37.33
2023-05-22T09:04:57.449Z,39.57
2023-05-22T09:07:25.221Z,37.20
2023-05-22T09:09:52.117Z,35.23
2023-05-22T09:12:18.990Z,36.80
2023-05-22T09:14:45.897Z,35.87
2023-05-22T09:17:16.148Z,37.20
2023-05-22T09:19:44.909Z,36.07
2023-05-22T09:22:12.185Z,36.70
2023-05-22T09:24:42.750Z,35.90
2023-05-22T09:27:11.595Z,38.10
2023-05-22T09:29:57.735Z,39.20
2023-05-22T09:32:24.999Z,36.97
2023-05-22T09:34:51.962Z,36.87
2023-05-22T09:37:18.858Z,38.63
2023-05-22T09:39:47.613Z,39.07
2023-05-22T09:42:18.294Z,38.90
2023-05-22T09:44:51.879Z,38.87
2023-05-22T09:47:18.796Z,37.40
2023-05-22T09:49:46.411Z,37.83
2023-05-22T09:52:13.329Z,36.63
2023-05-22T09:54:55.578Z,37.40
2023-05-22T09:57:25.389Z,37.37
2023-05-22T09:59:55.140Z,36.47
2023-05-22T10:02:24.319Z,34.87
2023-05-22T10:04:51.977Z,37.17
2023-05-22T10:07:22.930Z,36.53
2023-05-22T10:09:57.157Z,38.30
2023-05-22T10:12:25.432Z,39.07
2023-05-22T10:14:54.746Z,39.83
2023-05-22T10:17:22.076Z,39.40
2023-05-22T10:19:57.856Z,38.00
2023-05-22T10:22:27.673Z,40.73
2023-05-22T10:24:55.116Z,39.17
2023-05-22T10:27:22.037Z,42.33
2023-05-22T10:30:01.393Z,39.53
2023-05-22T10:32:45.372Z,36.67
2023-05-22T10:35:21.738Z,37.87
2023-05-22T10:37:54.975Z,41.67
2023-05-22T10:40:43.288Z,39.77
2023-05-22T10:43:10.354Z,37.73
2023-05-22T10:45:37.313Z,40.07
2023-05-22T10:48:08.777Z,39.37
2023-05-22T10:50:36.837Z,40.50
2023-05-22T10:53:22.445Z,40.27
2023-05-22T10:55:53.981Z,40.33
2023-05-22T10:58:36.596Z,41.20
2023-05-22T11:01:19.516Z,40.93
2023-05-22T11:04:13.007Z,41.80
2023-05-22T11:06:46.866Z,41.83
2023-05-22T11:09:16.994Z,40.20
2023-05-22T11:11:43.940Z,40.63
2023-05-22T11:14:17.374Z,40.47
2023-05-22T11:16:44.394Z,41.13
2023-05-22T11:19:22.885Z,41.53
2023-05-22T11:21:51.256Z,40.17
2023-05-22T11:24:18.823Z,39.40
2023-05-22T11:27:07.888Z,40.97
2023-05-22T11:29:35.748Z,41.77
2023-05-22T11:32:03.124Z,39.10
2023-05-22T11:34:30.185Z,43.57
2023-05-22T11:37:00.123Z,41.33
2023-05-22T11:39:27.433Z,42.77
2023-05-22T11:41:54.890Z,44.00
2023-05-22T11:44:21.802Z,60.43
2023-05-22T11:46:48.926Z,42.50
2023-05-22T11:49:17.395Z,42.33
2023-05-22T11:51:44.659Z,43.53
2023-05-22T11:54:11.837Z,44.63
2023-05-22T11:56:38.745Z,46.00
2023-05-22T11:59:05.649Z,41.23
2023-05-22T12:01:32.901Z,44.57
2023-05-22T12:03:59.852Z,46.40
2023-05-22T12:06:26.935Z,41.63
2023-05-22T12:08:54.314Z,43.63
2023-05-22T12:11:21.812Z,48.87
2023-05-22T12:13:52.250Z,44.07
2023-05-22T12:16:22.057Z,46.60
2023-05-22T12:18:53.275Z,44.40
2023-05-22T12:21:21.006Z,43.63
2023-05-22T12:23:51.639Z,46.03
2023-05-22T12:26:19.185Z,46.10
2023-05-22T12:28:46.453Z,48.37
2023-05-22T12:31:23.589Z,47.83
2023-05-22T12:33:55.093Z,48.20
2023-05-22T12:36:22.613Z,52.50
2023-05-22T12:38:49.484Z,50.03
2023-05-22T12:41:16.344Z,47.10
2023-05-22T12:43:43.514Z,48.27
2023-05-22T12:46:15.752Z,47.90
2023-05-22T12:48:42.610Z,45.37
2023-05-22T12:51:09.744Z,44.90
2023-05-22T12:53:36.687Z,44.60
2023-05-22T12:56:04.329Z,47.23
2023-05-22T12:58:31.195Z,46.40
2023-05-22T13:00:58.209Z,48.43
2023-05-22T13:03:25.168Z,48.57
2023-05-22T13:05:52.189Z,43.87
2023-05-22T13:08:19.147Z,44.60
2023-05-22T13:10:46.107Z,48.90
2023-05-22T13:13:12.964Z,47.67
2023-05-22T13:15:40.113Z,47.73
2023-05-22T13:18:07.287Z,46.37
2023-05-22T13:20:37.257Z,48.73
2023-05-22T13:23:04.695Z,48.27
2023-05-22T13:25:31.699Z,46.07
2023-05-22T13:27:59.990Z,45.90
2023-05-22T13:30:27.189Z,47.23
2023-05-22T13:32:54.633Z,46.37
2023-05-22T13:35:21.667Z,45.00
2023-05-22T13:37:48.665Z,47.40
2023-05-22T13:40:16.650Z,43.87
2023-05-22T13:42:43.936Z,43.83
2023-05-22T13:45:11.512Z,44.87
2023-05-22T13:47:38.674Z,43.97
2023-05-22T13:50:06.287Z,43.40
2023-05-22T13:52:33.206Z,44.10
2023-05-22T13:55:00.562Z,44.70
2023-05-22T13:57:27.426Z,44.10
2023-05-22T13:59:54.369Z,43.07
2023-05-22T14:02:21.458Z,42.17
2023-05-22T14:04:52.266Z,40.10
2023-05-22T14:07:19.308Z,43.70
2023-05-22T14:09:46.214Z,41.10
2023-05-22T14:12:13.118Z,39.70
2023-05-22T14:14:40.018Z,38.13
2023-05-22T14:17:08.620Z,38.53
2023-05-22T14:19:35.945Z,78.40
2023-05-22T14:22:02.893Z,34.47
2023-05-22T14:24:30.008Z,34.57
2023-05-22T14:26:58.355Z,34.33
2023-05-22T14:29:26.046Z,37.20
2023-05-22T14:32:02.801Z,39.80
2023-05-22T14:34:29.918Z,33.20
2023-05-22T14:36:58.410Z,36.47
2023-05-22T14:39:25.963Z,30.63
2023-05-22T14:41:53.945Z,29.40
2023-05-22T14:44:22.763Z,29.37
2023-05-22T14:46:51.209Z,30.83
2023-05-22T14:49:18.228Z,29.57
2023-05-22T14:51:48.161Z,30.17
2023-05-22T14:54:18.134Z,29.80
2023-05-22T14:56:45.763Z,34.50
2023-05-22T14:59:12.820Z,32.63
2023-05-22T15:01:39.784Z,33.03
2023-05-22T15:04:08.117Z,27.50
2023-05-22T15:06:35.618Z,32.13
2023-05-22T15:09:02.457Z,31.50
2023-05-22T15:11:29.364Z,27.33
2023-05-22T15:13:56.457Z,26.00
2023-05-22T15:16:23.534Z,26.97
2023-05-22T15:18:50.723Z,32.50
2023-05-22T15:21:17.869Z,28.93
2023-05-22T15:23:44.781Z,29.37
2023-05-22T15:26:11.715Z,27.60
2023-05-22T15:28:38.596Z,25.93
2023-05-22T15:31:05.587Z,26.10
2023-05-22T15:33:34.161Z,25.37
2023-05-22T15:36:01.001Z,25.33
2023-05-22T15:38:28.443Z,25.80
2023-05-22T15:40:55.304Z,24.70
2023-05-22T15:43:23.391Z,22.77
2023-05-22T15:45:52.198Z,31.67
2023-05-22T15:48:19.212Z,27.80
2023-05-22T15:50:46.138Z,25.87
2023-05-22T15:53:13.139Z,23.43
2023-05-22T15:55:40.193Z,25.20
2023-05-22T15:58:08.103Z,24.47
2023-05-22T16:00:38.894Z,24.40
2023-05-22T16:03:08.460Z,24.17
2023-05-22T16:05:42.126Z,23.77
2023-05-22T16:08:12.420Z,25.60
2023-05-22T16:10:41.697Z,25.80
2023-05-22T16:13:10.812Z,23.10
2023-05-22T16:15:39.964Z,23.40
2023-05-22T16:18:07.816Z,24.00
2023-05-22T16:20:36.051Z,23.07
2023-05-22T16:23:03.117Z,28.63
2023-05-22T16:25:30.025Z,25.00
2023-05-22T16:27:57.030Z,21.70
2023-05-22T16:30:23.999Z,23.47
2023-05-22T16:32:51.197Z,23.93
2023-05-22T16:35:19.771Z,22.07
2023-05-22T16:37:46.737Z,39.13
2023-05-22T16:40:13.746Z,29.30
2023-05-22T16:42:40.624Z,29.70
2023-05-22T16:45:08.157Z,28.30
2023-05-22T16:47:35.082Z,30.17
2023-05-22T16:50:02.060Z,27.70
2023-05-22T16:52:29.140Z,20.43
2023-05-22T16:54:56.100Z,9.00
2023-05-22T16:57:23.298Z,8.07
2023-05-22T16:59:50.416Z,8.57
2023-05-22T17:02:17.315Z,8.80
2023-05-22T17:04:44.326Z,9.30
2023-05-22T17:07:11.174Z,9.10
2023-05-22T17:09:38.378Z,9.90
2023-05-22T17:12:05.897Z,9.60
2023-05-22T17:14:34.477Z,9.00
2023-05-22T17:17:01.405Z,9.30
2023-05-22T17:19:28.340Z,10.60
2023-05-22T17:21:56.769Z,14.07
2023-05-22T17:24:23.656Z,17.27
2023-05-22T17:26:50.665Z,11.50
2023-05-22T17:29:17.556Z,13.20
2023-05-22T17:31:44.470Z,12.03
2023-05-22T17:34:11.359Z,12.13
2023-05-22T17:36:38.301Z,12.80
2023-05-22T17:39:05.155Z,13.43
2023-05-22T17:41:32.208Z,12.30
2023-05-22T17:44:01.064Z,12.40
2023-05-22T17:46:28.202Z,13.43
2023-05-22T17:48:55.567Z,13.03
2023-05-22T17:51:22.794Z,17.57
2023-05-22T17:53:50.278Z,25.83
2023-05-22T17:56:17.427Z,17.10
2023-05-22T17:58:44.296Z,14.73
2023-05-22T18:01:11.439Z,13.80
2023-05-22T18:03:38.488Z,11.47
2023-05-22T18:06:05.855Z,13.93
2023-05-22T18:08:32.782Z,11.10
2023-05-22T18:10:59.656Z,11.23
2023-05-22T18:13:26.606Z,11.90
2023-05-22T18:15:53.959Z,12.13
2023-05-22T18:18:22.624Z,11.40
2023-05-22T18:20:49.835Z,11.00
2023-05-22T18:23:16.847Z,12.10
2023-05-22T18:25:43.758Z,12.00
2023-05-22T18:28:10.783Z,10.80
2023-05-22T18:30:37.903Z,11.40
2023-05-22T18:33:05.010Z,10.33
2023-05-22T18:35:31.977Z,10.00
2023-05-22T18:38:00.346Z,9.80
2023-05-22T18:40:27.298Z,21.97
2023-05-22T18:42:54.133Z,11.23
2023-05-22T18:45:21.088Z,10.77
2023-05-22T18:47:48.019Z,11.13
2023-05-22T18:50:15.161Z,10.67
2023-05-22T18:52:42.067Z,10.20
2023-05-22T18:55:09.395Z,10.90
2023-05-22T18:57:36.390Z,11.23
2023-05-22T19:00:03.466Z,10.83
2023-05-22T19:02:30.403Z,10.17
2023-05-22T19:04:57.384Z,11.60
2023-05-22T19:07:24.294Z,10.70
2023-05-22T19:09:51.575Z,8.70
2023-05-22T19:12:18.474Z,9.23
2023-05-22T19:14:45.331Z,8.47
2023-05-22T19:17:12.582Z,7.90
2023-05-22T19:19:39.731Z,7.57
2023-05-22T19:22:06.688Z,7.07
2023-05-22T19:24:33.590Z,5.40
2023-05-22T19:27:00.512Z,6.53
2023-05-22T19:29:27.376Z,5.23
2023-05-22T19:31:54.256Z,5.23
2023-05-22T19:34:21.654Z,4.60
2023-05-22T19:36:50.810Z,5.37
2023-05-22T19:39:17.981Z,4.60
2023-05-22T19:41:45.046Z,5.40
2023-05-22T19:44:12.027Z,4.00
2023-05-22T19:46:38.892Z,5.03
2023-05-22T19:49:05.944Z,4.80
2023-05-22T19:51:32.984Z,4.47
2023-05-22T19:53:59.906Z,4.40
2023-05-22T19:56:28.379Z,4.50
2023-05-22T19:58:55.226Z,3.70
2023-05-22T20:01:22.545Z,5.10
2023-05-22T20:03:49.633Z,7.73
2023-05-22T20:06:16.633Z,4.40
2023-05-22T20:08:44.362Z,4.80
2023-05-22T20:11:11.231Z,4.80
2023-05-22T20:13:38.094Z,4.03
2023-05-22T20:16:11.843Z,6.10
2023-05-22T20:18:41.199Z,5.93
2023-05-22T20:21:08.372Z,5.00
2023-05-22T20:23:35.299Z,5.53
2023-05-22T20:26:02.189Z,5.13
2023-05-22T20:28:29.137Z,4.33
2023-05-22T20:30:56.187Z,4.40
2023-05-22T20:33:23.363Z,6.00
2023-05-22T20:35:52.892Z,4.50
2023-05-22T20:38:20.159Z,5.50
2023-05-22T20:40:47.784Z,4.93
2023-05-22T20:43:14.920Z,14.03
2023-05-22T20:45:45.912Z,5.27
2023-05-22T20:48:13.826Z,5.17
2023-05-22T20:50:42.220Z,6.27
2023-05-22T20:53:09.221Z,7.00
2023-05-22T20:55:36.365Z,5.77
2023-05-22T20:58:03.246Z,5.87
2023-05-22T21:00:30.195Z,6.37
2023-05-22T21:02:58.392Z,5.03
2023-05-22T21:05:25.858Z,5.97
2023-05-22T21:07:52.900Z,7.07
2023-05-22T21:10:19.796Z,6.60
2023-05-22T21:12:46.756Z,6.50
2023-05-22T21:17:45.373Z,6.70
2023-05-22T21:20:12.491Z,7.80
2023-05-22T21:22:39.371Z,5.63
2023-05-22T21:25:06.823Z,7.27
2023-05-22T21:27:33.693Z,6.20
2023-05-22T21:30:00.602Z,6.57
2023-05-22T21:32:27.514Z,8.40
2023-05-22T21:34:54.461Z,7.00
2023-05-22T21:37:21.329Z,7.30
2023-05-22T21:39:48.173Z,8.20
2023-05-22T21:42:16.337Z,6.97
2023-05-22T21:44:43.194Z,8.67
2023-05-22T21:47:10.496Z,7.93
2023-05-22T21:49:39.583Z,7.30
2023-05-22T21:52:07.010Z,6.53
2023-05-22T21:54:33.890Z,7.77
2023-05-22T21:57:00.881Z,6.70
2023-05-22T21:59:27.823Z,6.70
2023-05-22T22:01:54.962Z,7.50
2023-05-22T22:04:21.850Z,7.90
2023-05-22T22:06:48.766Z,7.20
2023-05-22T22:09:15.851Z,7.33
2023-05-22T22:11:42.713Z,7.07
2023-05-22T22:14:09.580Z,8.20
2023-05-22T22:16:36.635Z,7.60
2023-05-22T22:19:04.022Z,7.97
2023-05-22T22:21:31.770Z,8.67
2023-05-22T22:23:58.667Z,8.30
2023-05-22T22:26:25.515Z,8.70
2023-05-22T22:28:52.750Z,8.47
2023-05-22T22:31:19.716Z,8.57
2023-05-22T22:33:46.601Z,8.80
2023-05-22T22:36:13.574Z,9.97
2023-05-22T22:38:40.510Z,8.67
2023-05-22T22:41:09.436Z,9.27
2023-05-22T22:43:36.417Z,10.33
2023-05-22T22:46:03.318Z,9.03
2023-05-22T22:48:30.231Z,9.77
2023-05-22T22:50:58.315Z,10.20
2023-05-22T22:53:25.254Z,11.13
2023-05-22T22:55:56.868Z,11.23
2023-05-22T22:58:23.952Z,11.63
2023-05-22T23:00:51.699Z,11.83
2023-05-22T23:03:18.757Z,11.80
2023-05-22T23:05:45.809Z,11.67
2023-05-22T23:08:13.332Z,12.23
2023-05-22T23:10:40.252Z,12.43
2023-05-22T23:13:07.180Z,13.43
2023-05-22T23:15:34.232Z,12.33
2023-05-22T23:18:01.272Z,13.50
2023-05-22T23:20:28.166Z,12.10
2023-05-22T23:22:55.061Z,13.03
2023-05-22T23:25:22.012Z,14.60
2023-05-22T23:27:48.910Z,14.43
2023-05-22T23:30:15.940Z,14.80
2023-05-22T23:32:42.842Z,13.87
2023-05-22T23:35:11.121Z,14.67
2023-05-22T23:37:38.240Z,13.33
2023-05-22T23:40:06.806Z,14.73
2023-05-22T23:42:35.453Z,14.10
2023-05-22T23:45:04.324Z,16.03
2023-05-22T23:47:34.049Z,15.10
2023-05-22T23:50:01.128Z,16.83
2023-05-22T23:52:28.039Z,17.10
2023-05-22T23:54:54.899Z,16.37
2023-05-22T23:57:21.814Z,13.80
2023-05-22T23:59:48.716Z,13.03
